sensor_id;sensor_type;location;lat;lon;timestamp;P1;durP1;ratioP1;P2;durP2;ratioP2
32216;SDS011;67098;51.140;4.088;2024-01-30T00:02:06;17.80;;;9.25;;
32216;SDS011;67098;51.140;4.088;2024-01-30T00:04:32;20.70;;;9.23;;
32216;SDS011;67098;51.140;4.088;2024-01-30T00:06:58;14.73;;;8.88;;
32216;SDS011;67098;51.140;4.088;2024-01-30T00:09:23;14.85;;;8.80;;
32216;SDS011;67098;51.140;4.088;2024-01-30T00:11:49;18.27;;;8.77;;
32216;SDS011;67098;51.140;4.088;2024-01-30T00:14:16;13.07;;;8.25;;
32216;SDS011;67098;51.140;4.088;2024-01-30T00:16:41;16.90;;;9.30;;
32216;SDS011;67098;51.140;4.088;2024-01-30T00:19:07;16.80;;;9.32;;
32216;SDS011;67098;51.140;4.088;2024-01-30T00:21:33;15.63;;;9.07;;
32216;SDS011;67098;51.140;4.088;2024-01-30T00:23:59;14.68;;;8.73;;
32216;SDS011;67098;51.140;4.088;2024-01-30T00:26:25;16.38;;;8.13;;
32216;SDS011;67098;51.140;4.088;2024-01-30T00:28:51;14.27;;;8.77;;
32216;SDS011;67098;51.140;4.088;2024-01-30T00:31:16;16.58;;;9.02;;
32216;SDS011;67098;51.140;4.088;2024-01-30T00:33:42;12.43;;;8.70;;
32216;SDS011;67098;51.140;4.088;2024-01-30T00:36:09;15.48;;;8.73;;
32216;SDS011;67098;51.140;4.088;2024-01-30T00:38:35;16.30;;;8.35;;
32216;SDS011;67098;51.140;4.088;2024-01-30T00:41:02;20.67;;;8.57;;
32216;SDS011;67098;51.140;4.088;2024-01-30T00:43:28;17.70;;;9.45;;
32216;SDS011;67098;51.140;4.088;2024-01-30T00:45:54;15.30;;;8.63;;
32216;SDS011;67098;51.140;4.088;2024-01-30T00:48:20;11.43;;;8.52;;
32216;SDS011;67098;51.140;4.088;2024-01-30T00:50:46;15.85;;;8.85;;
32216;SDS011;67098;51.140;4.088;2024-01-30T00:53:12;16.38;;;8.95;;
32216;SDS011;67098;51.140;4.088;2024-01-30T00:55:38;18.05;;;9.60;;
32216;SDS011;67098;51.140;4.088;2024-01-30T00:58:04;14.70;;;8.63;;
32216;SDS011;67098;51.140;4.088;2024-01-30T01:00:30;15.63;;;9.10;;
32216;SDS011;67098;51.140;4.088;2024-01-30T01:02:57;19.52;;;9.60;;
32216;SDS011;67098;51.140;4.088;2024-01-30T01:05:23;14.90;;;8.77;;
32216;SDS011;67098;51.140;4.088;2024-01-30T01:07:49;16.52;;;10.20;;
32216;SDS011;67098;51.140;4.088;2024-01-30T01:10:18;15.63;;;9.05;;
32216;SDS011;67098;51.140;4.088;2024-01-30T01:12:44;14.63;;;8.63;;
32216;SDS011;67098;51.140;4.088;2024-01-30T01:15:11;14.73;;;8.68;;
32216;SDS011;67098;51.140;4.088;2024-01-30T01:17:37;18.02;;;8.55;;
32216;SDS011;67098;51.140;4.088;2024-01-30T01:20:04;14.98;;;8.75;;
32216;SDS011;67098;51.140;4.088;2024-01-30T01:22:31;14.55;;;9.02;;
32216;SDS011;67098;51.140;4.088;2024-01-30T01:24:58;17.05;;;8.77;;
32216;SDS011;67098;51.140;4.088;2024-01-30T01:27:24;15.55;;;8.77;;
32216;SDS011;67098;51.140;4.088;2024-01-30T01:29:50;16.67;;;8.80;;
32216;SDS011;67098;51.140;4.088;2024-01-30T01:32:16;14.60;;;8.38;;
32216;SDS011;67098;51.140;4.088;2024-01-30T01:34:42;17.27;;;9.25;;
32216;SDS011;67098;51.140;4.088;2024-01-30T01:37:08;16.50;;;8.68;;
32216;SDS011;67098;51.140;4.088;2024-01-30T01:39:34;14.02;;;8.68;;
32216;SDS011;67098;51.140;4.088;2024-01-30T01:41:59;16.42;;;8.95;;
32216;SDS011;67098;51.140;4.088;2024-01-30T01:44:25;13.45;;;8.25;;
32216;SDS011;67098;51.140;4.088;2024-01-30T01:46:51;14.60;;;8.02;;
32216;SDS011;67098;51.140;4.088;2024-01-30T01:49:18;18.45;;;8.95;;
32216;SDS011;67098;51.140;4.088;2024-01-30T01:51:45;17.77;;;9.48;;
32216;SDS011;67098;51.140;4.088;2024-01-30T01:54:13;16.20;;;9.50;;
32216;SDS011;67098;51.140;4.088;2024-01-30T01:56:41;12.52;;;8.43;;
32216;SDS011;67098;51.140;4.088;2024-01-30T01:59:08;15.98;;;8.70;;
32216;SDS011;67098;51.140;4.088;2024-01-30T02:01:36;14.18;;;9.05;;
32216;SDS011;67098;51.140;4.088;2024-01-30T02:04:03;17.27;;;9.10;;
32216;SDS011;67098;51.140;4.088;2024-01-30T02:06:29;14.38;;;8.30;;
32216;SDS011;67098;51.140;4.088;2024-01-30T02:08:56;15.75;;;8.73;;
32216;SDS011;67098;51.140;4.088;2024-01-30T02:11:22;17.83;;;9.27;;
32216;SDS011;67098;51.140;4.088;2024-01-30T02:13:48;18.92;;;9.25;;
32216;SDS011;67098;51.140;4.088;2024-01-30T02:16:15;15.38;;;8.57;;
32216;SDS011;67098;51.140;4.088;2024-01-30T02:18:42;14.32;;;8.45;;
32216;SDS011;67098;51.140;4.088;2024-01-30T02:21:10;15.18;;;8.50;;
32216;SDS011;67098;51.140;4.088;2024-01-30T02:23:37;16.90;;;8.63;;
32216;SDS011;67098;51.140;4.088;2024-01-30T02:26:04;18.75;;;8.52;;
32216;SDS011;67098;51.140;4.088;2024-01-30T02:28:30;13.35;;;8.70;;
32216;SDS011;67098;51.140;4.088;2024-01-30T02:30:56;16.15;;;8.65;;
32216;SDS011;67098;51.140;4.088;2024-01-30T02:33:22;16.35;;;9.27;;
32216;SDS011;67098;51.140;4.088;2024-01-30T02:35:48;15.27;;;8.55;;
32216;SDS011;67098;51.140;4.088;2024-01-30T02:38:15;18.88;;;8.80;;
32216;SDS011;67098;51.140;4.088;2024-01-30T02:40:41;12.43;;;7.97;;
32216;SDS011;67098;51.140;4.088;2024-01-30T02:43:07;15.40;;;8.35;;
32216;SDS011;67098;51.140;4.088;2024-01-30T02:45:33;16.42;;;8.48;;
32216;SDS011;67098;51.140;4.088;2024-01-30T02:47:59;15.57;;;8.93;;
32216;SDS011;67098;51.140;4.088;2024-01-30T02:50:25;14.60;;;8.27;;
32216;SDS011;67098;51.140;4.088;2024-01-30T02:52:50;14.63;;;9.27;;
32216;SDS011;67098;51.140;4.088;2024-01-30T02:55:16;13.55;;;8.52;;
32216;SDS011;67098;51.140;4.088;2024-01-30T02:57:45;13.70;;;7.88;;
32216;SDS011;67098;51.140;4.088;2024-01-30T03:00:11;12.10;;;7.90;;
32216;SDS011;67098;51.140;4.088;2024-01-30T03:02:37;13.68;;;8.25;;
32216;SDS011;67098;51.140;4.088;2024-01-30T03:05:04;12.98;;;7.85;;
32216;SDS011;67098;51.140;4.088;2024-01-30T03:07:30;14.23;;;8.98;;
32216;SDS011;67098;51.140;4.088;2024-01-30T03:09:56;14.88;;;8.18;;
32216;SDS011;67098;51.140;4.088;2024-01-30T03:12:22;15.43;;;8.13;;
32216;SDS011;67098;51.140;4.088;2024-01-30T03:14:48;13.82;;;8.65;;
32216;SDS011;67098;51.140;4.088;2024-01-30T03:17:14;15.65;;;8.45;;
32216;SDS011;67098;51.140;4.088;2024-01-30T03:19:40;13.60;;;8.20;;
32216;SDS011;67098;51.140;4.088;2024-01-30T03:22:06;18.30;;;8.48;;
32216;SDS011;67098;51.140;4.088;2024-01-30T03:24:32;15.75;;;8.48;;
32216;SDS011;67098;51.140;4.088;2024-01-30T03:26:58;19.75;;;8.48;;
32216;SDS011;67098;51.140;4.088;2024-01-30T03:29:24;14.02;;;8.55;;
32216;SDS011;67098;51.140;4.088;2024-01-30T03:31:49;14.32;;;8.40;;
32216;SDS011;67098;51.140;4.088;2024-01-30T03:34:15;17.90;;;9.13;;
32216;SDS011;67098;51.140;4.088;2024-01-30T03:36:41;15.32;;;8.20;;
32216;SDS011;67098;51.140;4.088;2024-01-30T03:39:07;18.50;;;8.40;;
32216;SDS011;67098;51.140;4.088;2024-01-30T03:41:33;15.18;;;8.77;;
32216;SDS011;67098;51.140;4.088;2024-01-30T03:43:58;12.85;;;8.20;;
32216;SDS011;67098;51.140;4.088;2024-01-30T03:46:24;14.57;;;8.15;;
32216;SDS011;67098;51.140;4.088;2024-01-30T03:48:50;15.85;;;8.00;;
32216;SDS011;67098;51.140;4.088;2024-01-30T03:51:16;16.48;;;7.97;;
32216;SDS011;67098;51.140;4.088;2024-01-30T03:53:42;11.75;;;8.07;;
32216;SDS011;67098;51.140;4.088;2024-01-30T03:56:08;17.33;;;8.95;;
32216;SDS011;67098;51.140;4.088;2024-01-30T03:58:34;15.07;;;8.60;;
32216;SDS011;67098;51.140;4.088;2024-01-30T04:01:00;18.20;;;8.60;;
32216;SDS011;67098;51.140;4.088;2024-01-30T04:03:26;17.90;;;8.23;;
32216;SDS011;67098;51.140;4.088;2024-01-30T04:05:52;16.13;;;8.70;;
32216;SDS011;67098;51.140;4.088;2024-01-30T04:08:18;14.98;;;8.20;;
32216;SDS011;67098;51.140;4.088;2024-01-30T04:10:44;16.50;;;8.48;;
32216;SDS011;67098;51.140;4.088;2024-01-30T04:13:11;14.98;;;8.50;;
32216;SDS011;67098;51.140;4.088;2024-01-30T04:15:37;17.05;;;8.43;;
32216;SDS011;67098;51.140;4.088;2024-01-30T04:18:02;18.90;;;9.35;;
32216;SDS011;67098;51.140;4.088;2024-01-30T04:20:29;13.88;;;8.25;;
32216;SDS011;67098;51.140;4.088;2024-01-30T04:22:55;13.63;;;8.45;;
32216;SDS011;67098;51.140;4.088;2024-01-30T04:25:21;16.48;;;9.02;;
32216;SDS011;67098;51.140;4.088;2024-01-30T04:27:47;15.27;;;8.88;;
32216;SDS011;67098;51.140;4.088;2024-01-30T04:30:13;16.73;;;8.45;;
32216;SDS011;67098;51.140;4.088;2024-01-30T04:32:39;14.40;;;8.85;;
32216;SDS011;67098;51.140;4.088;2024-01-30T04:35:05;19.92;;;8.73;;
32216;SDS011;67098;51.140;4.088;2024-01-30T04:37:31;17.95;;;8.68;;
32216;SDS011;67098;51.140;4.088;2024-01-30T04:39:57;14.90;;;8.38;;
32216;SDS011;67098;51.140;4.088;2024-01-30T04:42:23;19.15;;;9.38;;
32216;SDS011;67098;51.140;4.088;2024-01-30T04:44:49;14.10;;;8.43;;
32216;SDS011;67098;51.140;4.088;2024-01-30T04:47:15;15.65;;;8.13;;
32216;SDS011;67098;51.140;4.088;2024-01-30T04:49:41;18.95;;;9.05;;
32216;SDS011;67098;51.140;4.088;2024-01-30T04:52:07;14.30;;;8.40;;
32216;SDS011;67098;51.140;4.088;2024-01-30T04:54:34;16.98;;;7.93;;
32216;SDS011;67098;51.140;4.088;2024-01-30T04:57:00;12.35;;;8.10;;
32216;SDS011;67098;51.140;4.088;2024-01-30T04:59:27;15.10;;;8.45;;
32216;SDS011;67098;51.140;4.088;2024-01-30T05:01:53;15.48;;;8.98;;
32216;SDS011;67098;51.140;4.088;2024-01-30T05:04:19;14.05;;;8.57;;
32216;SDS011;67098;51.140;4.088;2024-01-30T05:06:44;13.55;;;8.13;;
32216;SDS011;67098;51.140;4.088;2024-01-30T05:09:11;17.58;;;8.63;;
32216;SDS011;67098;51.140;4.088;2024-01-30T05:11:37;19.17;;;8.80;;
32216;SDS011;67098;51.140;4.088;2024-01-30T05:14:04;12.82;;;7.93;;
32216;SDS011;67098;51.140;4.088;2024-01-30T05:16:30;16.77;;;8.60;;
32216;SDS011;67098;51.140;4.088;2024-01-30T05:18:56;14.10;;;7.55;;
32216;SDS011;67098;51.140;4.088;2024-01-30T05:21:23;15.80;;;8.18;;
32216;SDS011;67098;51.140;4.088;2024-01-30T05:23:49;12.43;;;7.80;;
32216;SDS011;67098;51.140;4.088;2024-01-30T05:26:15;14.85;;;7.88;;
32216;SDS011;67098;51.140;4.088;2024-01-30T05:28:40;20.23;;;8.23;;
32216;SDS011;67098;51.140;4.088;2024-01-30T05:31:06;19.42;;;8.35;;
32216;SDS011;67098;51.140;4.088;2024-01-30T05:33:33;13.63;;;7.35;;
32216;SDS011;67098;51.140;4.088;2024-01-30T05:35:59;13.05;;;7.50;;
32216;SDS011;67098;51.140;4.088;2024-01-30T05:38:24;12.50;;;7.80;;
32216;SDS011;67098;51.140;4.088;2024-01-30T05:40:50;15.13;;;8.38;;
32216;SDS011;67098;51.140;4.088;2024-01-30T05:43:17;14.32;;;8.35;;
32216;SDS011;67098;51.140;4.088;2024-01-30T05:45:42;13.70;;;7.45;;
32216;SDS011;67098;51.140;4.088;2024-01-30T05:48:08;14.50;;;8.55;;
32216;SDS011;67098;51.140;4.088;2024-01-30T05:50:34;11.93;;;7.40;;
32216;SDS011;67098;51.140;4.088;2024-01-30T05:53:00;15.10;;;8.20;;
32216;SDS011;67098;51.140;4.088;2024-01-30T05:55:26;14.85;;;8.00;;
32216;SDS011;67098;51.140;4.088;2024-01-30T05:57:52;12.60;;;7.95;;
32216;SDS011;67098;51.140;4.088;2024-01-30T06:00:18;15.48;;;8.07;;
32216;SDS011;67098;51.140;4.088;2024-01-30T06:02:43;14.25;;;8.00;;
32216;SDS011;67098;51.140;4.088;2024-01-30T06:05:09;15.85;;;7.90;;
32216;SDS011;67098;51.140;4.088;2024-01-30T06:07:35;14.40;;;8.60;;
32216;SDS011;67098;51.140;4.088;2024-01-30T06:10:01;11.73;;;7.47;;
32216;SDS011;67098;51.140;4.088;2024-01-30T06:12:27;12.23;;;8.05;;
32216;SDS011;67098;51.140;4.088;2024-01-30T06:14:53;18.05;;;8.75;;
32216;SDS011;67098;51.140;4.088;2024-01-30T06:17:22;15.60;;;8.68;;
32216;SDS011;67098;51.140;4.088;2024-01-30T06:19:48;16.70;;;8.00;;
32216;SDS011;67098;51.140;4.088;2024-01-30T06:22:14;15.95;;;8.90;;
32216;SDS011;67098;51.140;4.088;2024-01-30T06:24:40;16.17;;;8.40;;
32216;SDS011;67098;51.140;4.088;2024-01-30T06:27:06;17.33;;;9.25;;
32216;SDS011;67098;51.140;4.088;2024-01-30T06:29:32;15.10;;;8.40;;
32216;SDS011;67098;51.140;4.088;2024-01-30T06:31:58;14.63;;;8.45;;
32216;SDS011;67098;51.140;4.088;2024-01-30T06:34:24;13.52;;;7.97;;
32216;SDS011;67098;51.140;4.088;2024-01-30T06:36:51;16.67;;;8.70;;
32216;SDS011;67098;51.140;4.088;2024-01-30T06:39:17;18.33;;;8.77;;
32216;SDS011;67098;51.140;4.088;2024-01-30T06:41:43;14.25;;;8.15;;
32216;SDS011;67098;51.140;4.088;2024-01-30T06:44:11;14.75;;;8.07;;
32216;SDS011;67098;51.140;4.088;2024-01-30T06:46:38;19.40;;;8.52;;
32216;SDS011;67098;51.140;4.088;2024-01-30T06:49:03;13.55;;;8.00;;
32216;SDS011;67098;51.140;4.088;2024-01-30T06:51:30;13.85;;;8.40;;
32216;SDS011;67098;51.140;4.088;2024-01-30T06:53:56;15.43;;;8.15;;
32216;SDS011;67098;51.140;4.088;2024-01-30T06:56:21;15.02;;;8.35;;
32216;SDS011;67098;51.140;4.088;2024-01-30T06:58:48;16.27;;;8.43;;
32216;SDS011;67098;51.140;4.088;2024-01-30T07:01:14;14.48;;;8.52;;
32216;SDS011;67098;51.140;4.088;2024-01-30T07:03:40;16.73;;;7.80;;
32216;SDS011;67098;51.140;4.088;2024-01-30T07:06:06;15.40;;;8.00;;
32216;SDS011;67098;51.140;4.088;2024-01-30T07:08:31;16.00;;;8.23;;
32216;SDS011;67098;51.140;4.088;2024-01-30T07:10:57;12.38;;;8.32;;
32216;SDS011;67098;51.140;4.088;2024-01-30T07:13:23;11.68;;;7.93;;
32216;SDS011;67098;51.140;4.088;2024-01-30T07:15:50;15.75;;;8.75;;
32216;SDS011;67098;51.140;4.088;2024-01-30T07:18:16;19.15;;;8.90;;
32216;SDS011;67098;51.140;4.088;2024-01-30T07:20:41;15.10;;;8.52;;
32216;SDS011;67098;51.140;4.088;2024-01-30T07:23:14;13.93;;;8.15;;
32216;SDS011;67098;51.140;4.088;2024-01-30T07:25:45;14.48;;;8.63;;
32216;SDS011;67098;51.140;4.088;2024-01-30T07:28:11;14.88;;;8.45;;
32216;SDS011;67098;51.140;4.088;2024-01-30T07:30:37;20.33;;;8.27;;
32216;SDS011;67098;51.140;4.088;2024-01-30T07:33:04;15.27;;;8.45;;
32216;SDS011;67098;51.140;4.088;2024-01-30T07:35:30;14.35;;;8.38;;
32216;SDS011;67098;51.140;4.088;2024-01-30T07:37:55;17.35;;;8.80;;
32216;SDS011;67098;51.140;4.088;2024-01-30T07:40:22;17.67;;;9.13;;
32216;SDS011;67098;51.140;4.088;2024-01-30T07:42:49;18.23;;;8.70;;
32216;SDS011;67098;51.140;4.088;2024-01-30T07:45:15;13.57;;;8.27;;
32216;SDS011;67098;51.140;4.088;2024-01-30T07:47:41;13.55;;;7.97;;
32216;SDS011;67098;51.140;4.088;2024-01-30T07:50:07;13.90;;;8.10;;
32216;SDS011;67098;51.140;4.088;2024-01-30T07:52:34;17.60;;;8.02;;
32216;SDS011;67098;51.140;4.088;2024-01-30T07:55:00;15.95;;;8.82;;
32216;SDS011;67098;51.140;4.088;2024-01-30T07:57:25;17.38;;;8.75;;
32216;SDS011;67098;51.140;4.088;2024-01-30T07:59:51;13.48;;;8.80;;
32216;SDS011;67098;51.140;4.088;2024-01-30T08:02:17;14.68;;;8.10;;
32216;SDS011;67098;51.140;4.088;2024-01-30T08:04:43;13.85;;;8.88;;
32216;SDS011;67098;51.140;4.088;2024-01-30T08:07:13;14.45;;;8.80;;
32216;SDS011;67098;51.140;4.088;2024-01-30T08:09:39;13.57;;;8.38;;
32216;SDS011;67098;51.140;4.088;2024-01-30T08:12:05;14.77;;;8.32;;
32216;SDS011;67098;51.140;4.088;2024-01-30T08:14:30;15.73;;;9.10;;
32216;SDS011;67098;51.140;4.088;2024-01-30T08:16:57;18.38;;;9.18;;
32216;SDS011;67098;51.140;4.088;2024-01-30T08:19:22;15.90;;;9.15;;
32216;SDS011;67098;51.140;4.088;2024-01-30T08:21:48;16.00;;;8.60;;
32216;SDS011;67098;51.140;4.088;2024-01-30T08:24:14;17.10;;;8.75;;
32216;SDS011;67098;51.140;4.088;2024-01-30T08:26:39;19.73;;;8.48;;
32216;SDS011;67098;51.140;4.088;2024-01-30T08:29:05;15.45;;;9.25;;
32216;SDS011;67098;51.140;4.088;2024-01-30T08:31:31;17.33;;;9.55;;
32216;SDS011;67098;51.140;4.088;2024-01-30T08:33:57;15.02;;;8.60;;
32216;SDS011;67098;51.140;4.088;2024-01-30T08:36:23;18.52;;;9.02;;
32216;SDS011;67098;51.140;4.088;2024-01-30T08:38:50;16.27;;;8.98;;
32216;SDS011;67098;51.140;4.088;2024-01-30T08:41:15;15.93;;;8.93;;
32216;SDS011;67098;51.140;4.088;2024-01-30T08:43:41;17.17;;;8.80;;
32216;SDS011;67098;51.140;4.088;2024-01-30T08:46:07;21.67;;;10.48;;
32216;SDS011;67098;51.140;4.088;2024-01-30T08:48:33;15.43;;;8.98;;
32216;SDS011;67098;51.140;4.088;2024-01-30T08:50:58;17.67;;;8.60;;
32216;SDS011;67098;51.140;4.088;2024-01-30T08:53:24;15.57;;;8.88;;
32216;SDS011;67098;51.140;4.088;2024-01-30T08:55:50;20.77;;;10.25;;
32216;SDS011;67098;51.140;4.088;2024-01-30T08:58:15;19.08;;;9.27;;
32216;SDS011;67098;51.140;4.088;2024-01-30T09:00:44;21.38;;;8.77;;
32216;SDS011;67098;51.140;4.088;2024-01-30T09:03:09;20.92;;;9.45;;
32216;SDS011;67098;51.140;4.088;2024-01-30T09:05:35;22.77;;;9.50;;
32216;SDS011;67098;51.140;4.088;2024-01-30T09:08:01;19.20;;;9.52;;
32216;SDS011;67098;51.140;4.088;2024-01-30T09:10:27;19.75;;;9.57;;
32216;SDS011;67098;51.140;4.088;2024-01-30T09:12:52;17.25;;;10.00;;
32216;SDS011;67098;51.140;4.088;2024-01-30T09:15:18;20.80;;;10.55;;
32216;SDS011;67098;51.140;4.088;2024-01-30T09:17:44;25.55;;;10.13;;
32216;SDS011;67098;51.140;4.088;2024-01-30T09:20:10;18.42;;;9.27;;
32216;SDS011;67098;51.140;4.088;2024-01-30T09:22:36;19.40;;;9.70;;
32216;SDS011;67098;51.140;4.088;2024-01-30T09:25:03;25.63;;;11.65;;
32216;SDS011;67098;51.140;4.088;2024-01-30T09:27:29;20.90;;;9.35;;
32216;SDS011;67098;51.140;4.088;2024-01-30T09:29:54;24.83;;;10.88;;
32216;SDS011;67098;51.140;4.088;2024-01-30T09:32:20;21.02;;;10.25;;
32216;SDS011;67098;51.140;4.088;2024-01-30T09:34:46;22.38;;;10.32;;
32216;SDS011;67098;51.140;4.088;2024-01-30T09:37:12;22.17;;;10.05;;
32216;SDS011;67098;51.140;4.088;2024-01-30T09:39:40;19.25;;;9.75;;
32216;SDS011;67098;51.140;4.088;2024-01-30T09:44:38;19.92;;;9.35;;
32216;SDS011;67098;51.140;4.088;2024-01-30T09:47:08;23.20;;;9.77;;
32216;SDS011;67098;51.140;4.088;2024-01-30T09:49:36;20.90;;;9.68;;
32216;SDS011;67098;51.140;4.088;2024-01-30T09:52:03;22.65;;;9.25;;
32216;SDS011;67098;51.140;4.088;2024-01-30T09:54:30;20.58;;;8.98;;
32216;SDS011;67098;51.140;4.088;2024-01-30T09:56:56;18.75;;;8.43;;
32216;SDS011;67098;51.140;4.088;2024-01-30T09:59:23;17.52;;;8.57;;
32216;SDS011;67098;51.140;4.088;2024-01-30T10:01:49;18.08;;;7.75;;
32216;SDS011;67098;51.140;4.088;2024-01-30T10:04:16;18.17;;;7.88;;
32216;SDS011;67098;51.140;4.088;2024-01-30T10:06:42;14.55;;;6.97;;
32216;SDS011;67098;51.140;4.088;2024-01-30T10:09:07;13.57;;;6.63;;
32216;SDS011;67098;51.140;4.088;2024-01-30T10:11:34;15.05;;;5.95;;
32216;SDS011;67098;51.140;4.088;2024-01-30T10:14:01;17.10;;;5.90;;
32216;SDS011;67098;51.140;4.088;2024-01-30T10:16:27;15.80;;;6.07;;
32216;SDS011;67098;51.140;4.088;2024-01-30T10:18:53;18.40;;;4.80;;
32216;SDS011;67098;51.140;4.088;2024-01-30T10:21:19;12.60;;;4.25;;
32216;SDS011;67098;51.140;4.088;2024-01-30T10:23:44;8.00;;;3.85;;
32216;SDS011;67098;51.140;4.088;2024-01-30T10:26:10;8.32;;;3.47;;
32216;SDS011;67098;51.140;4.088;2024-01-30T10:28:36;8.13;;;2.90;;
32216;SDS011;67098;51.140;4.088;2024-01-30T10:31:02;9.32;;;1.80;;
32216;SDS011;67098;51.140;4.088;2024-01-30T10:33:31;7.70;;;2.45;;
32216;SDS011;67098;51.140;4.088;2024-01-30T10:36:03;5.10;;;2.60;;
32216;SDS011;67098;51.140;4.088;2024-01-30T10:38:31;8.15;;;2.60;;
32216;SDS011;67098;51.140;4.088;2024-01-30T10:40:58;11.32;;;2.65;;
32216;SDS011;67098;51.140;4.088;2024-01-30T10:43:35;7.38;;;2.63;;
32216;SDS011;67098;51.140;4.088;2024-01-30T10:48:44;5.50;;;1.25;;
32216;SDS011;67098;51.140;4.088;2024-01-30T10:51:16;5.32;;;1.38;;
32216;SDS011;67098;51.140;4.088;2024-01-30T10:53:43;3.88;;;0.80;;
32216;SDS011;67098;51.140;4.088;2024-01-30T10:56:11;4.68;;;0.90;;
32216;SDS011;67098;51.140;4.088;2024-01-30T10:58:39;4.45;;;1.10;;
32216;SDS011;67098;51.140;4.088;2024-01-30T11:01:05;8.25;;;1.73;;
32216;SDS011;67098;51.140;4.088;2024-01-30T11:03:32;5.72;;;1.33;;
32216;SDS011;67098;51.140;4.088;2024-01-30T11:06:02;6.22;;;1.92;;
32216;SDS011;67098;51.140;4.088;2024-01-30T11:08:28;4.57;;;1.50;;
32216;SDS011;67098;51.140;4.088;2024-01-30T11:10:57;4.85;;;1.73;;
32216;SDS011;67098;51.140;4.088;2024-01-30T11:13:30;6.40;;;1.50;;
32216;SDS011;67098;51.140;4.088;2024-01-30T11:16:00;6.45;;;1.75;;
32216;SDS011;67098;51.140;4.088;2024-01-30T11:18:30;4.80;;;1.60;;
32216;SDS011;67098;51.140;4.088;2024-01-30T11:20:57;5.55;;;1.38;;
32216;SDS011;67098;51.140;4.088;2024-01-30T11:23:26;4.70;;;0.90;;
32216;SDS011;67098;51.140;4.088;2024-01-30T11:25:55;2.65;;;0.95;;
32216;SDS011;67098;51.140;4.088;2024-01-30T11:28:22;5.68;;;1.10;;
32216;SDS011;67098;51.140;4.088;2024-01-30T11:30:48;3.60;;;1.10;;
32216;SDS011;67098;51.140;4.088;2024-01-30T11:33:27;9.18;;;1.73;;
32216;SDS011;67098;51.140;4.088;2024-01-30T11:35:59;4.90;;;1.13;;
32216;SDS011;67098;51.140;4.088;2024-01-30T11:38:26;4.63;;;0.90;;
32216;SDS011;67098;51.140;4.088;2024-01-30T11:40:53;12.18;;;1.55;;
32216;SDS011;67098;51.140;4.088;2024-01-30T11:43:23;3.53;;;1.00;;
32216;SDS011;67098;51.140;4.088;2024-01-30T11:45:50;6.88;;;0.93;;
32216;SDS011;67098;51.140;4.088;2024-01-30T11:48:16;7.18;;;1.25;;
32216;SDS011;67098;51.140;4.088;2024-01-30T11:50:42;7.68;;;1.20;;
32216;SDS011;67098;51.140;4.088;2024-01-30T11:53:09;9.02;;;1.23;;
32216;SDS011;67098;51.140;4.088;2024-01-30T11:55:36;4.47;;;1.13;;
32216;SDS011;67098;51.140;4.088;2024-01-30T11:58:03;14.38;;;1.77;;
32216;SDS011;67098;51.140;4.088;2024-01-30T12:00:31;11.10;;;1.45;;
32216;SDS011;67098;51.140;4.088;2024-01-30T12:02:58;4.18;;;1.20;;
32216;SDS011;67098;51.140;4.088;2024-01-30T12:05:25;6.72;;;1.17;;
32216;SDS011;67098;51.140;4.088;2024-01-30T12:07:52;5.68;;;1.02;;
32216;SDS011;67098;51.140;4.088;2024-01-30T12:10:18;11.30;;;1.35;;
32216;SDS011;67098;51.140;4.088;2024-01-30T12:12:47;7.25;;;1.10;;
32216;SDS011;67098;51.140;4.088;2024-01-30T12:15:15;5.10;;;1.17;;
32216;SDS011;67098;51.140;4.088;2024-01-30T12:17:41;9.57;;;1.65;;
32216;SDS011;67098;51.140;4.088;2024-01-30T12:20:10;6.53;;;1.30;;
32216;SDS011;67098;51.140;4.088;2024-01-30T12:22:42;4.60;;;1.15;;
32216;SDS011;67098;51.140;4.088;2024-01-30T12:25:10;3.75;;;1.02;;
32216;SDS011;67098;51.140;4.088;2024-01-30T12:27:37;5.63;;;1.30;;
32216;SDS011;67098;51.140;4.088;2024-01-30T12:30:07;6.32;;;1.42;;
32216;SDS011;67098;51.140;4.088;2024-01-30T12:32:34;6.65;;;1.10;;
32216;SDS011;67098;51.140;4.088;2024-01-30T12:35:09;9.57;;;1.55;;
32216;SDS011;67098;51.140;4.088;2024-01-30T12:37:36;9.23;;;1.58;;
32216;SDS011;67098;51.140;4.088;2024-01-30T12:40:02;5.63;;;1.40;;
32216;SDS011;67098;51.140;4.088;2024-01-30T12:42:28;9.57;;;1.25;;
32216;SDS011;67098;51.140;4.088;2024-01-30T12:44:57;6.40;;;1.55;;
32216;SDS011;67098;51.140;4.088;2024-01-30T12:47:24;5.15;;;1.13;;
32216;SDS011;67098;51.140;4.088;2024-01-30T12:49:50;6.35;;;1.20;;
32216;SDS011;67098;51.140;4.088;2024-01-30T12:52:18;8.30;;;1.20;;
32216;SDS011;67098;51.140;4.088;2024-01-30T12:54:45;5.75;;;1.27;;
32216;SDS011;67098;51.140;4.088;2024-01-30T12:57:11;8.85;;;1.35;;
32216;SDS011;67098;51.140;4.088;2024-01-30T12:59:36;14.63;;;1.75;;
32216;SDS011;67098;51.140;4.088;2024-01-30T13:02:02;8.45;;;1.77;;
32216;SDS011;67098;51.140;4.088;2024-01-30T13:04:28;6.43;;;1.13;;
32216;SDS011;67098;51.140;4.088;2024-01-30T13:06:54;9.23;;;1.50;;
32216;SDS011;67098;51.140;4.088;2024-01-30T13:09:20;8.98;;;1.13;;
32216;SDS011;67098;51.140;4.088;2024-01-30T13:11:46;12.50;;;1.75;;
32216;SDS011;67098;51.140;4.088;2024-01-30T13:14:12;8.00;;;1.23;;
32216;SDS011;67098;51.140;4.088;2024-01-30T13:16:38;8.65;;;1.33;;
32216;SDS011;67098;51.140;4.088;2024-01-30T13:19:04;7.07;;;1.13;;
32216;SDS011;67098;51.140;4.088;2024-01-30T13:21:29;9.80;;;1.95;;
32216;SDS011;67098;51.140;4.088;2024-01-30T13:23:55;6.28;;;1.70;;
32216;SDS011;67098;51.140;4.088;2024-01-30T13:26:21;8.05;;;1.33;;
32216;SDS011;67098;51.140;4.088;2024-01-30T13:28:47;3.95;;;1.10;;
32216;SDS011;67098;51.140;4.088;2024-01-30T13:31:16;4.43;;;0.90;;
32216;SDS011;67098;51.140;4.088;2024-01-30T13:33:41;3.63;;;0.90;;
32216;SDS011;67098;51.140;4.088;2024-01-30T13:36:08;6.30;;;0.95;;
32216;SDS011;67098;51.140;4.088;2024-01-30T13:38:35;9.35;;;1.30;;
32216;SDS011;67098;51.140;4.088;2024-01-30T13:41:01;9.98;;;1.20;;
32216;SDS011;67098;51.140;4.088;2024-01-30T13:43:27;10.23;;;1.95;;
32216;SDS011;67098;51.140;4.088;2024-01-30T13:45:53;6.32;;;1.27;;
32216;SDS011;67098;51.140;4.088;2024-01-30T13:48:19;8.05;;;1.30;;
32216;SDS011;67098;51.140;4.088;2024-01-30T13:50:45;7.22;;;1.52;;
32216;SDS011;67098;51.140;4.088;2024-01-30T13:53:11;5.80;;;1.30;;
32216;SDS011;67098;51.140;4.088;2024-01-30T13:55:37;12.85;;;1.80;;
32216;SDS011;67098;51.140;4.088;2024-01-30T13:58:04;8.43;;;1.60;;
32216;SDS011;67098;51.140;4.088;2024-01-30T14:00:31;9.00;;;1.42;;
32216;SDS011;67098;51.140;4.088;2024-01-30T14:02:57;9.98;;;1.45;;
32216;SDS011;67098;51.140;4.088;2024-01-30T14:05:24;5.43;;;1.70;;
32216;SDS011;67098;51.140;4.088;2024-01-30T14:07:51;11.77;;;1.70;;
32216;SDS011;67098;51.140;4.088;2024-01-30T14:10:17;7.20;;;1.60;;
32216;SDS011;67098;51.140;4.088;2024-01-30T14:12:43;9.27;;;1.70;;
32216;SDS011;67098;51.140;4.088;2024-01-30T14:15:09;10.07;;;1.48;;
32216;SDS011;67098;51.140;4.088;2024-01-30T14:17:36;5.43;;;1.35;;
32216;SDS011;67098;51.140;4.088;2024-01-30T14:20:05;5.57;;;1.30;;
32216;SDS011;67098;51.140;4.088;2024-01-30T14:22:32;10.77;;;1.40;;
32216;SDS011;67098;51.140;4.088;2024-01-30T14:24:59;6.30;;;1.52;;
32216;SDS011;67098;51.140;4.088;2024-01-30T14:27:29;11.15;;;1.70;;
32216;SDS011;67098;51.140;4.088;2024-01-30T14:29:55;8.60;;;1.95;;
32216;SDS011;67098;51.140;4.088;2024-01-30T14:32:21;9.40;;;1.65;;
32216;SDS011;67098;51.140;4.088;2024-01-30T14:34:48;8.60;;;1.50;;
32216;SDS011;67098;51.140;4.088;2024-01-30T14:37:15;11.45;;;2.15;;
32216;SDS011;67098;51.140;4.088;2024-01-30T14:39:41;13.95;;;2.10;;